Flight Track Log - Related Links

Times and Time Zones

All times are in EDT time to prevent confusion due to time zone crossing. See the CCA4298 flight status page for this flight to view local times or setup timezone preferences in your user account.

Time Position Orientation Groundspeed Altitude Reporting Facility
EDT Latitude Longitude Course Direction KTS MPH feet Rate Location/Type
Fri 05:02:00 AM 32.6426 103.8937 140° Southeast  Level Estimated
Fri 05:03:00 AM 32.5889 103.9463 140° Southeast  Level Estimated
Fri 05:04:00 AM 32.5353 103.9987 141° Southeast  Level Estimated
Fri 05:05:00 AM 32.4815 104.0511 141° Southeast  Level Estimated
Fri 05:06:00 AM 32.4278 104.1035 141° Southeast  Level Estimated
Fri 05:07:00 AM 32.3741 104.1557 141° Southeast  Level Estimated
Fri 05:07:24 AM 32.4450 104.0540 141° Southeast 435 501 24,600  Level FlightAware ADS-B
Fri 05:08:00 AM 32.3203 104.2080 141° Southeast  Level Estimated
Fri 05:08:02 AM 32.4310 104.1460 100° East 459 528 24,600  Level FlightAware ADS-B
Fri 05:08:34 AM 32.4210 104.2270 98° East 462 532 24,600  Level FlightAware ADS-B
Fri 05:09:10 AM 32.4110 104.3170 97° East 460 529 24,600  Level FlightAware ADS-B
Fri 05:09:51 AM 32.4090 104.4190 91° East 460 529 24,600  Level FlightAware ADS-B
Fri 05:10:28 AM 32.4080 104.5120 91° East 459 528 24,600  Level FlightAware ADS-B
Fri 05:11:02 AM 32.4070 104.5960 91° East 455 524 24,600  Level FlightAware ADS-B
Fri 05:11:44 AM 32.4070 104.6840 90° East 455 524 24,600  Level FlightAware ADS-B
Fri 05:12:20 AM 32.4070 104.7610 90° East 455 524 24,600  Level FlightAware ADS-B
Fri 05:12:56 AM 32.4070 104.8370 90° East 455 524 24,600  Level FlightAware ADS-B
Fri 05:13:32 AM 32.4070 104.9130 90° East 455 524 24,600  Level FlightAware ADS-B
Fri 05:14:08 AM 32.4070 104.9900 90° East 455 524 24,600  Level FlightAware ADS-B
Fri 05:14:44 AM 32.4070 105.0660 90° East 455 524 24,600  Level FlightAware ADS-B
Fri 05:17:00 AM 32.2666 105.1508 153° Southeast  Level Estimated
Fri 05:18:00 AM 32.2046 105.1882 153° Southeast  Level Estimated
Fri 05:19:00 AM 32.1427 105.2255 153° Southeast  Level Estimated
Fri 05:20:00 AM 32.0807 105.2627 153° Southeast  Level Estimated
Fri 05:21:00 AM 32.0187 105.2999 153° Southeast  Level Estimated
Fri 05:22:00 AM 31.9567 105.3370 153° Southeast  Level Estimated
Fri 05:23:00 AM 31.8947 105.3741 153° Southeast  Level Estimated
Fri 05:24:00 AM 31.8327 105.4112 153° Southeast  Level Estimated
Fri 05:25:00 AM 31.7706 105.4482 153° Southeast  Level Estimated
Fri 05:26:00 AM 31.7086 105.4851 153° Southeast  Level Estimated
Fri 05:27:00 AM 31.6465 105.5220 153° Southeast  Level Estimated
Fri 05:28:00 AM 31.5844 105.5588 153° Southeast  Level Estimated
Fri 05:29:00 AM 31.5224 105.5956 153° Southeast  Level Estimated
Fri 05:30:00 AM 31.4603 105.6323 153° Southeast  Level Estimated
Fri 05:31:00 AM 31.3982 105.6690 153° Southeast  Level Estimated
Fri 05:32:00 AM 31.3361 105.7057 153° Southeast  Level Estimated
Fri 05:33:00 AM 31.2739 105.7423 153° Southeast  Level Estimated
Fri 05:34:00 AM 31.2118 105.7788 153° Southeast  Level Estimated
Fri 05:35:00 AM 31.1497 105.8153 153° Southeast  Level Estimated
Fri 05:36:00 AM 31.0875 105.8518 153° Southeast  Level Estimated
Fri 05:37:00 AM 31.0254 105.8882 153° Southeast  Level Estimated
Fri 05:38:00 AM 30.9632 105.9246 153° Southeast  Level Estimated
Fri 05:39:00 AM 30.9010 105.9609 153° Southeast  Level Estimated
Fri 05:40:00 AM 30.8388 105.9971 153° Southeast  Level Estimated
Fri 05:41:00 AM 30.7766 106.0333 153° Southeast  Level Estimated
Fri 05:42:00 AM 30.7144 106.0695 153° Southeast  Level Estimated
Fri 05:43:00 AM 30.6522 106.1056 153° Southeast  Level Estimated
Fri 05:44:00 AM 30.5900 106.1417 153° Southeast  Level Estimated
Fri 05:45:00 AM 30.5277 106.1777 153° Southeast  Level Estimated
Fri 05:46:00 AM 30.4655 106.2137 154° Southeast  Level Estimated
Fri 05:47:00 AM 30.4032 106.2497 154° Southeast  Level Estimated
Fri 05:48:00 AM 30.3409 106.2856 154° Southeast  Level Estimated
Fri 05:49:00 AM 30.2787 106.3214 154° Southeast  Level Estimated
Fri 05:50:00 AM 30.2164 106.3572 154° Southeast  Level Estimated
Fri 05:51:00 AM 30.1541 106.3930 154° Southeast  Level Estimated
Fri 05:52:00 AM 30.0918 106.4287 154° Southeast  Level Estimated
Fri 05:53:00 AM 30.0294 106.4643 154° Southeast  Level Estimated
Fri 05:54:00 AM 29.9671 106.4999 154° Southeast  Level Estimated
Fri 05:55:00 AM 29.9048 106.5355 154° Southeast  Level Estimated
Fri 05:56:00 AM 29.8424 106.5710 154° Southeast  Level Estimated
Fri 05:57:00 AM 29.7801 106.6065 154° Southeast  Level Estimated
Fri 05:58:00 AM 29.7194 106.6410 154° Southeast  Level Estimated
Fri 05:59:00 AM 29.7194 106.6410 60° Northeast  Level Estimated
Fri 06:00:00 AM 29.7194 106.6410 60° Northeast  Level Estimated
Fri 06:01:00 AM 29.7194 106.6410 60° Northeast  Level Estimated

Login

Don't have an account? Register now (free) for customized features, flight alerts, and more!